TimeEST,TemperatureF,Dew PointF,Humidity,Sea Level PressureIn,VisibilityMPH,Wind Direction,Wind SpeedMPH,Gust SpeedMPH,PrecipitationIn,Events,Conditions,WindDirDegrees,DateUTC
12:54 AM,64.9,51.1,61,29.97,10.0,SSW,21.9,32.2,N/A,,Overcast,200,2012-11-13 05:54:00
1:13 AM,55.4,48.2,77,30.02,10.0,West,17.3,29.9,N/A,,Overcast,280,2012-11-13 06:13:00
1:18 AM,53.6,48.2,82,30.03,4.0,WNW,17.3,27.6,0.01,Rain,Rain,300,2012-11-13 06:18:00
1:27 AM,53.6,48.2,82,30.06,2.5,WNW,16.1,25.3,0.10,Rain,Heavy Rain,290,2012-11-13 06:27:00
1:30 AM,53.6,48.2,82,30.06,3.0,WNW,17.3,25.3,0.11,Rain,Rain,290,2012-11-13 06:30:00
1:43 AM,51.8,48.2,88,30.07,5.0,WNW,13.8,20.7,0.14,Rain,Light Rain,290,2012-11-13 06:43:00
1:54 AM,51.1,46.0,83,30.08,6.0,WNW,11.5,-,0.16,Rain,Light Rain,290,2012-11-13 06:54:00
2:54 AM,48.9,46.0,90,30.12,5.0,ENE,6.9,-,0.05,Rain,Light Rain,60,2012-11-13 07:54:00
3:54 AM,48.0,46.0,93,30.14,6.0,ENE,3.5,-,0.09,Rain,Light Rain,60,2012-11-13 08:54:00
4:28 AM,48.2,44.6,87,30.16,9.0,North,4.6,-,0.04,Rain,Light Rain,360,2012-11-13 09:28:00
4:54 AM,46.9,44.1,90,30.17,7.0,NW,3.5,-,0.09,Rain,Light Rain,320,2012-11-13 09:54:00
5:05 AM,46.4,42.8,87,30.18,10.0,WNW,6.9,-,0.01,Rain,Light Rain,300,2012-11-13 10:05:00
5:54 AM,44.1,39.0,82,30.21,4.0,WNW,10.4,-,0.10,Rain,Heavy Rain,290,2012-11-13 10:54:00
6:10 AM,44.6,39.2,81,30.20,4.0,NW,10.4,-,0.07,Rain,Rain,310,2012-11-13 11:10:00
6:54 AM,42.1,37.9,85,30.22,5.0,Calm,Calm,-,0.13,Rain,Light Rain,0,2012-11-13 11:54:00
7:43 AM,42.8,37.4,81,30.23,10.0,Calm,Calm,-,0.09,Rain,Light Rain,0,2012-11-13 12:43:00
7:54 AM,42.1,37.9,85,30.25,10.0,Calm,Calm,-,0.09,,Overcast,0,2012-11-13 12:54:00
8:16 AM,41.0,35.6,81,30.25,3.0,WNW,9.2,23.0,0.03,Rain,Rain,300,2012-11-13 13:16:00
8:40 AM,42.8,35.6,76,30.27,10.0,West,5.8,-,0.04,,Overcast,260,2012-11-13 13:40:00
8:49 AM,42.8,35.6,76,30.27,10.0,West,3.5,-,0.04,Rain,Light Rain,270,2012-11-13 13:49:00
8:54 AM,42.1,36.0,79,30.29,10.0,West,8.1,-,0.04,Rain,Light Rain,270,2012-11-13 13:54:00
9:54 AM,43.0,32.0,65,30.29,10.0,WNW,9.2,19.6,0.00,,Overcast,290,2012-11-13 14:54:00
10:54 AM,42.1,25.0,51,30.30,10.0,WNW,18.4,29.9,N/A,,Mostly Cloudy,290,2012-11-13 15:54:00
11:54 AM,44.1,24.1,45,30.30,10.0,West,11.5,19.6,N/A,,Scattered Clouds,270,2012-11-13 16:54:00
12:54 PM,45.0,24.1,44,30.30,10.0,WNW,10.4,-,N/A,,Mostly Cloudy,290,2012-11-13 17:54:00
1:54 PM,44.1,24.1,45,30.31,10.0,WNW,9.2,-,N/A,,Mostly Cloudy,300,2012-11-13 18:54:00
2:54 PM,44.1,21.9,42,30.33,10.0,WNW,13.8,-,N/A,,Mostly Cloudy,290,2012-11-13 19:54:00
3:54 PM,43.0,21.9,43,30.35,10.0,WNW,11.5,-,N/A,,Mostly Cloudy,290,2012-11-13 20:54:00
4:54 PM,42.1,21.0,43,30.37,10.0,WNW,12.7,-,N/A,,Mostly Cloudy,300,2012-11-13 21:54:00
5:54 PM,39.0,24.1,55,30.41,10.0,NNW,5.8,-,N/A,,Mostly Cloudy,340,2012-11-13 22:54:00
6:54 PM,36.0,25.0,64,30.43,10.0,North,5.8,-,N/A,,Clear,10,2012-11-13 23:54:00
7:54 PM,34.0,24.1,67,30.46,10.0,Calm,Calm,-,N/A,,Partly Cloudy,0,2012-11-14 00:54:00
8:54 PM,33.1,25.0,72,30.47,10.0,Calm,Calm,-,N/A,,Clear,0,2012-11-14 01:54:00
9:54 PM,30.9,25.0,79,30.49,10.0,Calm,Calm,-,N/A,,Clear,0,2012-11-14 02:54:00
10:54 PM,30.0,24.1,79,30.50,10.0,Calm,Calm,-,N/A,,Clear,0,2012-11-14 03:54:00
11:54 PM,28.9,24.1,82,30.51,10.0,Calm,Calm,-,N/A,,Clear,0,2012-11-14 04:54:00